sensor_id;sensor_type;location;lat;lon;timestamp;P1;durP1;ratioP1;P2;durP2;ratioP2
72109;SDS011;59983;52.010;5.420;2023-04-01T00:00:52;10.55;;;9.65;;
72109;SDS011;59983;52.010;5.420;2023-04-01T00:03:20;14.10;;;10.17;;
72109;SDS011;59983;52.010;5.420;2023-04-01T00:05:48;13.23;;;11.52;;
72109;SDS011;59983;52.010;5.420;2023-04-01T00:08:15;16.25;;;12.40;;
72109;SDS011;59983;52.010;5.420;2023-04-01T00:10:41;11.18;;;10.07;;
72109;SDS011;59983;52.010;5.420;2023-04-01T00:13:08;14.82;;;11.13;;
72109;SDS011;59983;52.010;5.420;2023-04-01T00:15:35;17.10;;;12.37;;
72109;SDS011;59983;52.010;5.420;2023-04-01T00:18:02;14.82;;;10.68;;
72109;SDS011;59983;52.010;5.420;2023-04-01T00:20:29;26.27;;;12.02;;
72109;SDS011;59983;52.010;5.420;2023-04-01T00:22:55;20.20;;;12.75;;
72109;SDS011;59983;52.010;5.420;2023-04-01T00:25:22;18.27;;;12.88;;
72109;SDS011;59983;52.010;5.420;2023-04-01T00:27:49;23.00;;;11.90;;
72109;SDS011;59983;52.010;5.420;2023-04-01T00:30:16;16.98;;;12.60;;
72109;SDS011;59983;52.010;5.420;2023-04-01T00:32:43;20.45;;;12.50;;
72109;SDS011;59983;52.010;5.420;2023-04-01T00:35:10;26.92;;;13.90;;
72109;SDS011;59983;52.010;5.420;2023-04-01T00:37:37;29.25;;;15.02;;
72109;SDS011;59983;52.010;5.420;2023-04-01T00:40:06;27.70;;;13.67;;
72109;SDS011;59983;52.010;5.420;2023-04-01T00:42:33;19.02;;;13.30;;
72109;SDS011;59983;52.010;5.420;2023-04-01T00:45:21;25.42;;;14.75;;
72109;SDS011;59983;52.010;5.420;2023-04-01T00:47:51;25.10;;;13.35;;
72109;SDS011;59983;52.010;5.420;2023-04-01T00:50:17;24.13;;;15.35;;
72109;SDS011;59983;52.010;5.420;2023-04-01T00:52:44;24.17;;;13.27;;
72109;SDS011;59983;52.010;5.420;2023-04-01T00:55:12;36.88;;;13.88;;
72109;SDS011;59983;52.010;5.420;2023-04-01T00:57:41;23.27;;;15.98;;
72109;SDS011;59983;52.010;5.420;2023-04-01T01:00:11;18.30;;;12.40;;
72109;SDS011;59983;52.010;5.420;2023-04-01T01:02:43;25.98;;;14.80;;
72109;SDS011;59983;52.010;5.420;2023-04-01T01:05:12;25.67;;;14.60;;
72109;SDS011;59983;52.010;5.420;2023-04-01T01:07:43;27.90;;;13.50;;
72109;SDS011;59983;52.010;5.420;2023-04-01T01:13:03;21.23;;;12.30;;
72109;SDS011;59983;52.010;5.420;2023-04-01T01:16:00;22.63;;;13.20;;
72109;SDS011;59983;52.010;5.420;2023-04-01T01:24:25;26.65;;;13.02;;
72109;SDS011;59983;52.010;5.420;2023-04-01T01:26:59;16.10;;;12.52;;
72109;SDS011;59983;52.010;5.420;2023-04-01T01:37:42;34.83;;;15.23;;
72109;SDS011;59983;52.010;5.420;2023-04-01T01:40:11;34.30;;;16.05;;
72109;SDS011;59983;52.010;5.420;2023-04-01T01:42:40;27.05;;;12.65;;
72109;SDS011;59983;52.010;5.420;2023-04-01T01:45:12;31.60;;;17.33;;
72109;SDS011;59983;52.010;5.420;2023-04-01T01:47:44;34.58;;;17.65;;
72109;SDS011;59983;52.010;5.420;2023-04-01T01:50:12;34.00;;;17.42;;
72109;SDS011;59983;52.010;5.420;2023-04-01T01:52:40;36.75;;;16.50;;
72109;SDS011;59983;52.010;5.420;2023-04-01T01:55:29;28.42;;;14.35;;
72109;SDS011;59983;52.010;5.420;2023-04-01T01:58:06;18.37;;;12.37;;
72109;SDS011;59983;52.010;5.420;2023-04-01T02:00:37;24.45;;;13.15;;
72109;SDS011;59983;52.010;5.420;2023-04-01T02:03:05;31.80;;;13.27;;
72109;SDS011;59983;52.010;5.420;2023-04-01T02:05:32;28.45;;;12.93;;
72109;SDS011;59983;52.010;5.420;2023-04-01T02:08:18;28.90;;;13.00;;
72109;SDS011;59983;52.010;5.420;2023-04-01T02:11:00;14.17;;;9.33;;
72109;SDS011;59983;52.010;5.420;2023-04-01T02:16:21;20.70;;;13.05;;
72109;SDS011;59983;52.010;5.420;2023-04-01T02:18:53;24.63;;;13.20;;
72109;SDS011;59983;52.010;5.420;2023-04-01T02:21:22;21.95;;;11.88;;
72109;SDS011;59983;52.010;5.420;2023-04-01T02:23:52;15.53;;;8.70;;
72109;SDS011;59983;52.010;5.420;2023-04-01T02:26:20;17.90;;;11.50;;
72109;SDS011;59983;52.010;5.420;2023-04-01T02:28:48;14.90;;;10.32;;
72109;SDS011;59983;52.010;5.420;2023-04-01T02:31:16;22.50;;;12.85;;
72109;SDS011;59983;52.010;5.420;2023-04-01T02:33:43;24.40;;;12.63;;
72109;SDS011;59983;52.010;5.420;2023-04-01T02:36:14;13.23;;;11.13;;
72109;SDS011;59983;52.010;5.420;2023-04-01T02:38:42;17.48;;;12.20;;
72109;SDS011;59983;52.010;5.420;2023-04-01T02:41:10;16.77;;;12.70;;
72109;SDS011;59983;52.010;5.420;2023-04-01T02:43:37;17.02;;;11.70;;
72109;SDS011;59983;52.010;5.420;2023-04-01T02:46:04;16.17;;;11.70;;
72109;SDS011;59983;52.010;5.420;2023-04-01T02:48:32;15.60;;;12.53;;
72109;SDS011;59983;52.010;5.420;2023-04-01T02:50:58;15.05;;;9.88;;
72109;SDS011;59983;52.010;5.420;2023-04-01T02:53:25;16.67;;;11.15;;
72109;SDS011;59983;52.010;5.420;2023-04-01T02:55:51;17.88;;;12.07;;
72109;SDS011;59983;52.010;5.420;2023-04-01T02:58:18;13.70;;;12.40;;
72109;SDS011;59983;52.010;5.420;2023-04-01T03:00:45;15.23;;;11.70;;
72109;SDS011;59983;52.010;5.420;2023-04-01T03:03:11;16.05;;;12.00;;
72109;SDS011;59983;52.010;5.420;2023-04-01T03:05:39;17.98;;;13.55;;
72109;SDS011;59983;52.010;5.420;2023-04-01T03:08:06;17.48;;;12.68;;
72109;SDS011;59983;52.010;5.420;2023-04-01T03:10:33;15.13;;;13.85;;
72109;SDS011;59983;52.010;5.420;2023-04-01T03:12:59;15.90;;;12.10;;
72109;SDS011;59983;52.010;5.420;2023-04-01T03:15:25;20.52;;;14.80;;
72109;SDS011;59983;52.010;5.420;2023-04-01T03:17:52;14.60;;;13.23;;
72109;SDS011;59983;52.010;5.420;2023-04-01T03:20:18;15.68;;;12.43;;
72109;SDS011;59983;52.010;5.420;2023-04-01T03:22:46;22.35;;;14.30;;
72109;SDS011;59983;52.010;5.420;2023-04-01T03:25:12;13.80;;;12.50;;
72109;SDS011;59983;52.010;5.420;2023-04-01T03:27:39;16.30;;;11.73;;
72109;SDS011;59983;52.010;5.420;2023-04-01T03:30:06;16.10;;;14.30;;
72109;SDS011;59983;52.010;5.420;2023-04-01T03:32:33;14.25;;;12.75;;
72109;SDS011;59983;52.010;5.420;2023-04-01T03:35:00;13.30;;;12.20;;
72109;SDS011;59983;52.010;5.420;2023-04-01T03:37:27;13.57;;;11.50;;
72109;SDS011;59983;52.010;5.420;2023-04-01T03:39:53;16.73;;;12.45;;
72109;SDS011;59983;52.010;5.420;2023-04-01T03:42:20;13.55;;;12.15;;
72109;SDS011;59983;52.010;5.420;2023-04-01T03:44:46;11.25;;;10.20;;
72109;SDS011;59983;52.010;5.420;2023-04-01T03:47:13;12.50;;;10.90;;
72109;SDS011;59983;52.010;5.420;2023-04-01T03:49:39;11.90;;;10.80;;
72109;SDS011;59983;52.010;5.420;2023-04-01T03:52:08;11.90;;;10.68;;
72109;SDS011;59983;52.010;5.420;2023-04-01T03:54:36;15.15;;;10.98;;
72109;SDS011;59983;52.010;5.420;2023-04-01T03:57:03;12.77;;;10.05;;
72109;SDS011;59983;52.010;5.420;2023-04-01T03:59:31;13.90;;;10.80;;
72109;SDS011;59983;52.010;5.420;2023-04-01T04:01:58;14.30;;;11.10;;
72109;SDS011;59983;52.010;5.420;2023-04-01T04:04:24;14.43;;;12.77;;
72109;SDS011;59983;52.010;5.420;2023-04-01T04:06:52;19.27;;;13.30;;
72109;SDS011;59983;52.010;5.420;2023-04-01T04:09:19;15.13;;;11.00;;
72109;SDS011;59983;52.010;5.420;2023-04-01T04:11:46;12.18;;;10.90;;
72109;SDS011;59983;52.010;5.420;2023-04-01T04:14:12;12.90;;;11.07;;
72109;SDS011;59983;52.010;5.420;2023-04-01T04:16:39;12.95;;;11.15;;
72109;SDS011;59983;52.010;5.420;2023-04-01T04:19:05;13.52;;;10.88;;
72109;SDS011;59983;52.010;5.420;2023-04-01T04:21:32;10.85;;;9.82;;
72109;SDS011;59983;52.010;5.420;2023-04-01T04:23:59;11.32;;;10.07;;
72109;SDS011;59983;52.010;5.420;2023-04-01T04:26:27;10.43;;;9.40;;
72109;SDS011;59983;52.010;5.420;2023-04-01T04:28:53;12.85;;;9.93;;
72109;SDS011;59983;52.010;5.420;2023-04-01T04:31:21;12.25;;;10.55;;
72109;SDS011;59983;52.010;5.420;2023-04-01T04:33:48;11.13;;;9.38;;
72109;SDS011;59983;52.010;5.420;2023-04-01T04:36:15;18.23;;;11.85;;
72109;SDS011;59983;52.010;5.420;2023-04-01T04:38:42;11.43;;;10.33;;
72109;SDS011;59983;52.010;5.420;2023-04-01T04:41:09;11.52;;;10.32;;
72109;SDS011;59983;52.010;5.420;2023-04-01T04:43:38;12.52;;;11.07;;
72109;SDS011;59983;52.010;5.420;2023-04-01T04:46:06;13.43;;;10.57;;
72109;SDS011;59983;52.010;5.420;2023-04-01T04:48:36;13.10;;;11.90;;
72109;SDS011;59983;52.010;5.420;2023-04-01T04:51:03;13.20;;;11.07;;
72109;SDS011;59983;52.010;5.420;2023-04-01T04:53:29;11.70;;;10.52;;
72109;SDS011;59983;52.010;5.420;2023-04-01T04:55:56;15.73;;;11.10;;
72109;SDS011;59983;52.010;5.420;2023-04-01T04:58:22;13.27;;;11.00;;
72109;SDS011;59983;52.010;5.420;2023-04-01T05:00:49;9.75;;;8.75;;
72109;SDS011;59983;52.010;5.420;2023-04-01T05:03:15;12.07;;;8.90;;
72109;SDS011;59983;52.010;5.420;2023-04-01T05:05:48;9.30;;;8.30;;
72109;SDS011;59983;52.010;5.420;2023-04-01T05:08:18;10.05;;;9.05;;
72109;SDS011;59983;52.010;5.420;2023-04-01T05:10:45;8.65;;;7.75;;
72109;SDS011;59983;52.010;5.420;2023-04-01T05:13:12;8.98;;;7.88;;
72109;SDS011;59983;52.010;5.420;2023-04-01T05:15:39;8.23;;;7.47;;
72109;SDS011;59983;52.010;5.420;2023-04-01T05:18:06;7.97;;;7.38;;
72109;SDS011;59983;52.010;5.420;2023-04-01T05:20:32;7.80;;;7.10;;
72109;SDS011;59983;52.010;5.420;2023-04-01T05:22:59;7.40;;;6.68;;
72109;SDS011;59983;52.010;5.420;2023-04-01T05:25:26;7.43;;;6.82;;
72109;SDS011;59983;52.010;5.420;2023-04-01T05:27:53;6.07;;;5.57;;
72109;SDS011;59983;52.010;5.420;2023-04-01T05:30:20;7.80;;;7.20;;
72109;SDS011;59983;52.010;5.420;2023-04-01T05:32:47;7.43;;;6.93;;
72109;SDS011;59983;52.010;5.420;2023-04-01T05:35:13;7.93;;;7.32;;
72109;SDS011;59983;52.010;5.420;2023-04-01T05:37:40;8.25;;;7.65;;
72109;SDS011;59983;52.010;5.420;2023-04-01T05:40:07;9.27;;;8.47;;
72109;SDS011;59983;52.010;5.420;2023-04-01T05:42:34;8.15;;;7.45;;
72109;SDS011;59983;52.010;5.420;2023-04-01T05:45:03;10.10;;;9.30;;
72109;SDS011;59983;52.010;5.420;2023-04-01T05:47:30;10.60;;;8.45;;
72109;SDS011;59983;52.010;5.420;2023-04-01T05:49:57;10.05;;;9.07;;
72109;SDS011;59983;52.010;5.420;2023-04-01T05:52:23;11.83;;;8.07;;
72109;SDS011;59983;52.010;5.420;2023-04-01T05:54:50;9.90;;;8.75;;
72109;SDS011;59983;52.010;5.420;2023-04-01T05:57:17;10.02;;;9.00;;
72109;SDS011;59983;52.010;5.420;2023-04-01T05:59:43;9.63;;;8.73;;
72109;SDS011;59983;52.010;5.420;2023-04-01T06:02:10;9.25;;;8.40;;
72109;SDS011;59983;52.010;5.420;2023-04-01T06:04:38;8.83;;;7.90;;
72109;SDS011;59983;52.010;5.420;2023-04-01T06:07:10;9.73;;;8.73;;
72109;SDS011;59983;52.010;5.420;2023-04-01T06:09:41;10.70;;;9.50;;
72109;SDS011;59983;52.010;5.420;2023-04-01T06:12:22;9.43;;;8.43;;
72109;SDS011;59983;52.010;5.420;2023-04-01T06:20:32;9.60;;;8.70;;
72109;SDS011;59983;52.010;5.420;2023-04-01T06:31:29;10.03;;;8.40;;
72109;SDS011;59983;52.010;5.420;2023-04-01T06:34:38;10.77;;;9.50;;
72109;SDS011;59983;52.010;5.420;2023-04-01T06:37:45;8.75;;;7.90;;
72109;SDS011;59983;52.010;5.420;2023-04-01T06:51:00;9.35;;;8.40;;
72109;SDS011;59983;52.010;5.420;2023-04-01T06:56:32;10.50;;;9.50;;
72109;SDS011;59983;52.010;5.420;2023-04-01T06:59:08;9.53;;;8.63;;
72109;SDS011;59983;52.010;5.420;2023-04-01T07:01:38;10.30;;;9.30;;
72109;SDS011;59983;52.010;5.420;2023-04-01T07:04:33;8.80;;;8.10;;
72109;SDS011;59983;52.010;5.420;2023-04-01T07:09:58;9.90;;;8.52;;
72109;SDS011;59983;52.010;5.420;2023-04-01T07:14:58;9.00;;;8.30;;
72109;SDS011;59983;52.010;5.420;2023-04-01T07:17:31;8.40;;;7.80;;
72109;SDS011;59983;52.010;5.420;2023-04-01T07:22:47;7.55;;;6.85;;
72109;SDS011;59983;52.010;5.420;2023-04-01T07:25:22;7.63;;;7.13;;
72109;SDS011;59983;52.010;5.420;2023-04-01T07:27:56;7.18;;;6.65;;
72109;SDS011;59983;52.010;5.420;2023-04-01T07:30:28;6.57;;;6.18;;
72109;SDS011;59983;52.010;5.420;2023-04-01T07:33:14;6.13;;;5.75;;
72109;SDS011;59983;52.010;5.420;2023-04-01T07:38:38;5.80;;;5.30;;
72109;SDS011;59983;52.010;5.420;2023-04-01T07:43:56;6.95;;;6.47;;
72109;SDS011;59983;52.010;5.420;2023-04-01T07:46:39;7.07;;;6.38;;
72109;SDS011;59983;52.010;5.420;2023-04-01T07:49:31;10.65;;;9.60;;
72109;SDS011;59983;52.010;5.420;2023-04-01T07:52:20;7.33;;;6.87;;
72109;SDS011;59983;52.010;5.420;2023-04-01T07:55:01;8.65;;;7.85;;
72109;SDS011;59983;52.010;5.420;2023-04-01T07:57:55;8.05;;;7.43;;
72109;SDS011;59983;52.010;5.420;2023-04-01T08:00:39;8.07;;;7.47;;
72109;SDS011;59983;52.010;5.420;2023-04-01T08:03:20;7.88;;;7.07;;
72109;SDS011;59983;52.010;5.420;2023-04-01T08:05:51;8.20;;;7.50;;
72109;SDS011;59983;52.010;5.420;2023-04-01T08:11:31;10.15;;;9.30;;
72109;SDS011;59983;52.010;5.420;2023-04-01T08:21:50;11.00;;;9.95;;
72109;SDS011;59983;52.010;5.420;2023-04-01T08:24:35;10.30;;;9.60;;
72109;SDS011;59983;52.010;5.420;2023-04-01T08:27:17;9.85;;;8.95;;
72109;SDS011;59983;52.010;5.420;2023-04-01T08:30:28;8.68;;;7.95;;
72109;SDS011;59983;52.010;5.420;2023-04-01T08:38:26;11.68;;;9.05;;
72109;SDS011;59983;52.010;5.420;2023-04-01T09:04:14;12.13;;;9.57;;
72109;SDS011;59983;52.010;5.420;2023-04-01T09:12:07;11.18;;;10.07;;
72109;SDS011;59983;52.010;5.420;2023-04-01T09:17:51;10.48;;;8.77;;
72109;SDS011;59983;52.010;5.420;2023-04-01T09:25:54;13.20;;;10.45;;
72109;SDS011;59983;52.010;5.420;2023-04-01T09:28:56;12.13;;;10.93;;
72109;SDS011;59983;52.010;5.420;2023-04-01T09:34:55;13.00;;;11.10;;
72109;SDS011;59983;52.010;5.420;2023-04-01T09:40:09;18.45;;;12.43;;
72109;SDS011;59983;52.010;5.420;2023-04-01T09:42:45;14.70;;;11.13;;
72109;SDS011;59983;52.010;5.420;2023-04-01T09:53:54;11.88;;;10.45;;
72109;SDS011;59983;52.010;5.420;2023-04-01T10:08:04;9.80;;;8.95;;
72109;SDS011;59983;52.010;5.420;2023-04-01T10:10:46;8.77;;;7.97;;
72109;SDS011;59983;52.010;5.420;2023-04-01T10:13:27;9.30;;;8.43;;
72109;SDS011;59983;52.010;5.420;2023-04-01T10:19:39;8.60;;;7.82;;
72109;SDS011;59983;52.010;5.420;2023-04-01T10:37:32;7.25;;;6.85;;
72109;SDS011;59983;52.010;5.420;2023-04-01T10:42:38;6.70;;;6.18;;
72109;SDS011;59983;52.010;5.420;2023-04-01T10:45:37;7.78;;;7.18;;
72109;SDS011;59983;52.010;5.420;2023-04-01T10:54:21;8.10;;;7.60;;
72109;SDS011;59983;52.010;5.420;2023-04-01T10:57:19;6.13;;;5.72;;
72109;SDS011;59983;52.010;5.420;2023-04-01T11:00:32;7.90;;;7.32;;
72109;SDS011;59983;52.010;5.420;2023-04-01T11:03:24;7.05;;;6.65;;
72109;SDS011;59983;52.010;5.420;2023-04-01T11:20:13;9.40;;;8.48;;
72109;SDS011;59983;52.010;5.420;2023-04-01T11:26:51;8.98;;;8.07;;
72109;SDS011;59983;52.010;5.420;2023-04-01T11:41:33;7.47;;;6.82;;
72109;SDS011;59983;52.010;5.420;2023-04-01T11:44:14;7.82;;;7.25;;
72109;SDS011;59983;52.010;5.420;2023-04-01T11:49:47;6.85;;;6.45;;
72109;SDS011;59983;52.010;5.420;2023-04-01T11:52:32;5.23;;;4.93;;
72109;SDS011;59983;52.010;5.420;2023-04-01T11:58:11;5.93;;;5.63;;
72109;SDS011;59983;52.010;5.420;2023-04-01T12:07:06;5.93;;;5.53;;
72109;SDS011;59983;52.010;5.420;2023-04-01T12:09:52;5.38;;;5.10;;
72109;SDS011;59983;52.010;5.420;2023-04-01T12:21:02;5.37;;;4.97;;
72109;SDS011;59983;52.010;5.420;2023-04-01T12:23:46;5.03;;;4.60;;
72109;SDS011;59983;52.010;5.420;2023-04-01T12:29:31;3.90;;;3.70;;
72109;SDS011;59983;52.010;5.420;2023-04-01T12:34:49;4.60;;;4.40;;
72109;SDS011;59983;52.010;5.420;2023-04-01T12:55:30;6.80;;;6.03;;
72109;SDS011;59983;52.010;5.420;2023-04-01T13:00:40;6.32;;;5.82;;
72109;SDS011;59983;52.010;5.420;2023-04-01T13:06:19;7.63;;;7.07;;
72109;SDS011;59983;52.010;5.420;2023-04-01T13:09:02;9.15;;;8.27;;
72109;SDS011;59983;52.010;5.420;2023-04-01T13:14:38;9.48;;;8.52;;
72109;SDS011;59983;52.010;5.420;2023-04-01T13:20:29;9.63;;;8.70;;
72109;SDS011;59983;52.010;5.420;2023-04-01T13:31:43;8.47;;;7.67;;
72109;SDS011;59983;52.010;5.420;2023-04-01T13:34:21;8.50;;;7.78;;
72109;SDS011;59983;52.010;5.420;2023-04-01T13:37:15;8.80;;;8.00;;
72109;SDS011;59983;52.010;5.420;2023-04-01T13:43:02;8.00;;;7.20;;
72109;SDS011;59983;52.010;5.420;2023-04-01T13:48:33;10.10;;;9.20;;
72109;SDS011;59983;52.010;5.420;2023-04-01T14:08:17;6.40;;;6.00;;
72109;SDS011;59983;52.010;5.420;2023-04-01T14:25:29;5.83;;;5.43;;
72109;SDS011;59983;52.010;5.420;2023-04-01T14:42:45;6.35;;;5.85;;
72109;SDS011;59983;52.010;5.420;2023-04-01T14:51:09;7.90;;;7.30;;
72109;SDS011;59983;52.010;5.420;2023-04-01T14:53:43;9.07;;;8.00;;
72109;SDS011;59983;52.010;5.420;2023-04-01T14:56:41;7.30;;;6.78;;
72109;SDS011;59983;52.010;5.420;2023-04-01T14:59:16;7.82;;;7.25;;
72109;SDS011;59983;52.010;5.420;2023-04-01T15:02:15;7.65;;;7.15;;
72109;SDS011;59983;52.010;5.420;2023-04-01T15:18:58;8.38;;;7.68;;
72109;SDS011;59983;52.010;5.420;2023-04-01T15:27:34;8.15;;;7.45;;
72109;SDS011;59983;52.010;5.420;2023-04-01T15:35:51;6.67;;;6.20;;
72109;SDS011;59983;52.010;5.420;2023-04-01T15:38:34;7.57;;;6.90;;
72109;SDS011;59983;52.010;5.420;2023-04-01T15:41:17;6.85;;;6.45;;
72109;SDS011;59983;52.010;5.420;2023-04-01T15:43:51;7.53;;;7.03;;
72109;SDS011;59983;52.010;5.420;2023-04-01T16:00:06;6.63;;;6.07;;
72109;SDS011;59983;52.010;5.420;2023-04-01T16:05:26;9.45;;;6.30;;
72109;SDS011;59983;52.010;5.420;2023-04-01T16:13:58;6.20;;;5.80;;
72109;SDS011;59983;52.010;5.420;2023-04-01T16:22:23;7.70;;;6.78;;
72109;SDS011;59983;52.010;5.420;2023-04-01T16:27:58;6.25;;;5.85;;
72109;SDS011;59983;52.010;5.420;2023-04-01T16:30:35;8.50;;;8.00;;
72109;SDS011;59983;52.010;5.420;2023-04-01T16:33:05;7.32;;;6.72;;
72109;SDS011;59983;52.010;5.420;2023-04-01T16:35:56;7.80;;;7.30;;
72109;SDS011;59983;52.010;5.420;2023-04-01T16:38:33;7.80;;;7.30;;
72109;SDS011;59983;52.010;5.420;2023-04-01T16:41:10;7.07;;;6.57;;
72109;SDS011;59983;52.010;5.420;2023-04-01T16:43:43;8.10;;;7.40;;
72109;SDS011;59983;52.010;5.420;2023-04-01T16:46:33;8.25;;;7.65;;
72109;SDS011;59983;52.010;5.420;2023-04-01T16:56:55;14.43;;;11.10;;
72109;SDS011;59983;52.010;5.420;2023-04-01T17:02:13;10.98;;;10.07;;
72109;SDS011;59983;52.010;5.420;2023-04-01T17:07:23;8.85;;;8.02;;
72109;SDS011;59983;52.010;5.420;2023-04-01T17:10:10;7.67;;;7.27;;
72109;SDS011;59983;52.010;5.420;2023-04-01T17:23:26;12.93;;;8.50;;
72109;SDS011;59983;52.010;5.420;2023-04-01T17:28:49;8.63;;;8.02;;
72109;SDS011;59983;52.010;5.420;2023-04-01T17:34:17;8.88;;;8.25;;
72109;SDS011;59983;52.010;5.420;2023-04-01T17:45:24;10.18;;;9.13;;
72109;SDS011;59983;52.010;5.420;2023-04-01T18:05:01;8.20;;;7.70;;
72109;SDS011;59983;52.010;5.420;2023-04-01T18:10:42;8.45;;;7.95;;
72109;SDS011;59983;52.010;5.420;2023-04-01T18:13:42;8.38;;;7.88;;
72109;SDS011;59983;52.010;5.420;2023-04-01T18:16:26;9.00;;;8.40;;
72109;SDS011;59983;52.010;5.420;2023-04-01T18:19:12;9.57;;;8.97;;
72109;SDS011;59983;52.010;5.420;2023-04-01T18:24:54;8.55;;;8.02;;
72109;SDS011;59983;52.010;5.420;2023-04-01T18:27:32;9.63;;;8.93;;
72109;SDS011;59983;52.010;5.420;2023-04-01T18:35:20;9.32;;;8.73;;
72109;SDS011;59983;52.010;5.420;2023-04-01T18:41:18;14.68;;;13.35;;
72109;SDS011;59983;52.010;5.420;2023-04-01T18:46:57;10.73;;;9.90;;
72109;SDS011;59983;52.010;5.420;2023-04-01T18:52:40;9.63;;;8.88;;
72109;SDS011;59983;52.010;5.420;2023-04-01T18:57:46;11.18;;;10.27;;
72109;SDS011;59983;52.010;5.420;2023-04-01T19:00:20;14.10;;;12.80;;
72109;SDS011;59983;52.010;5.420;2023-04-01T19:02:55;12.32;;;11.32;;
72109;SDS011;59983;52.010;5.420;2023-04-01T19:05:33;17.48;;;14.82;;
72109;SDS011;59983;52.010;5.420;2023-04-01T19:21:01;9.77;;;9.18;;
72109;SDS011;59983;52.010;5.420;2023-04-01T19:23:39;9.55;;;8.95;;
72109;SDS011;59983;52.010;5.420;2023-04-01T19:28:55;11.57;;;10.68;;
72109;SDS011;59983;52.010;5.420;2023-04-01T19:34:27;10.48;;;9.88;;
72109;SDS011;59983;52.010;5.420;2023-04-01T19:37:03;9.57;;;8.73;;
72109;SDS011;59983;52.010;5.420;2023-04-01T19:39:39;8.20;;;7.70;;
72109;SDS011;59983;52.010;5.420;2023-04-01T19:42:18;10.93;;;10.20;;
72109;SDS011;59983;52.010;5.420;2023-04-01T19:50:46;8.60;;;8.10;;
72109;SDS011;59983;52.010;5.420;2023-04-01T19:56:18;9.30;;;8.40;;
72109;SDS011;59983;52.010;5.420;2023-04-01T19:59:02;8.75;;;8.15;;
72109;SDS011;59983;52.010;5.420;2023-04-01T20:01:44;9.07;;;8.48;;
72109;SDS011;59983;52.010;5.420;2023-04-01T20:10:22;9.25;;;8.55;;
72109;SDS011;59983;52.010;5.420;2023-04-01T20:13:05;8.52;;;8.02;;
72109;SDS011;59983;52.010;5.420;2023-04-01T20:15:46;9.02;;;8.27;;
72109;SDS011;59983;52.010;5.420;2023-04-01T20:18:38;8.30;;;7.80;;
72109;SDS011;59983;52.010;5.420;2023-04-01T20:23:41;8.68;;;8.18;;
72109;SDS011;59983;52.010;5.420;2023-04-01T20:26:13;7.57;;;7.07;;
72109;SDS011;59983;52.010;5.420;2023-04-01T20:28:47;8.48;;;7.97;;
72109;SDS011;59983;52.010;5.420;2023-04-01T20:51:24;9.35;;;8.63;;
72109;SDS011;59983;52.010;5.420;2023-04-01T20:59:44;10.23;;;9.52;;
72109;SDS011;59983;52.010;5.420;2023-04-01T21:05:24;11.82;;;11.02;;
72109;SDS011;59983;52.010;5.420;2023-04-01T21:13:39;12.30;;;11.35;;
72109;SDS011;59983;52.010;5.420;2023-04-01T21:16:37;12.57;;;11.57;;
72109;SDS011;59983;52.010;5.420;2023-04-01T21:21:59;11.88;;;10.88;;
72109;SDS011;59983;52.010;5.420;2023-04-01T21:30:37;11.43;;;10.63;;
72109;SDS011;59983;52.010;5.420;2023-04-01T21:44:46;11.17;;;10.30;;
72109;SDS011;59983;52.010;5.420;2023-04-01T22:07:09;14.13;;;11.07;;
72109;SDS011;59983;52.010;5.420;2023-04-01T22:17:26;10.43;;;9.52;;
72109;SDS011;59983;52.010;5.420;2023-04-01T22:19:59;10.68;;;9.88;;
72109;SDS011;59983;52.010;5.420;2023-04-01T22:25:20;10.80;;;10.00;;
72109;SDS011;59983;52.010;5.420;2023-04-01T22:28:05;11.82;;;10.77;;
72109;SDS011;59983;52.010;5.420;2023-04-01T22:30:39;11.38;;;10.52;;
72109;SDS011;59983;52.010;5.420;2023-04-01T22:52:45;11.70;;;10.80;;
72109;SDS011;59983;52.010;5.420;2023-04-01T22:55:19;12.18;;;11.15;;
72109;SDS011;59983;52.010;5.420;2023-04-01T22:57:51;12.10;;;11.02;;
72109;SDS011;59983;52.010;5.420;2023-04-01T23:00:30;10.80;;;10.05;;
72109;SDS011;59983;52.010;5.420;2023-04-01T23:05:31;11.97;;;11.10;;
72109;SDS011;59983;52.010;5.420;2023-04-01T23:11:02;12.40;;;11.50;;
72109;SDS011;59983;52.010;5.420;2023-04-01T23:13:34;13.15;;;11.85;;
72109;SDS011;59983;52.010;5.420;2023-04-01T23:16:04;12.60;;;11.75;;
72109;SDS011;59983;52.010;5.420;2023-04-01T23:29:22;13.85;;;12.75;;
72109;SDS011;59983;52.010;5.420;2023-04-01T23:32:13;12.90;;;11.80;;
72109;SDS011;59983;52.010;5.420;2023-04-01T23:34:44;12.75;;;11.65;;
72109;SDS011;59983;52.010;5.420;2023-04-01T23:37:13;12.73;;;11.77;;
72109;SDS011;59983;52.010;5.420;2023-04-01T23:39:44;12.15;;;11.02;;
72109;SDS011;59983;52.010;5.420;2023-04-01T23:44:58;13.20;;;12.07;;
72109;SDS011;59983;52.010;5.420;2023-04-01T23:47:29;14.93;;;13.40;;
72109;SDS011;59983;52.010;5.420;2023-04-01T23:49:59;13.75;;;12.55;;
72109;SDS011;59983;52.010;5.420;2023-04-01T23:52:30;15.13;;;13.63;;
72109;SDS011;59983;52.010;5.420;2023-04-01T23:57:37;14.80;;;13.60;;
